Time;durP1;ratioP1;P1;durP2;ratioP2;P2;SDS_P1;SDS_P2;PMS_P1;PMS_P2;Temp;Humidity;BMP_temperature;BMP_pressure;BME280_temperature;BME280_humidity;BME280_pressure;Samples;Min_cycle;Max_cycle;Signal;HPM_P1;HPM_P2
2024/01/05 00:01:58;;;;;;;19.05;8.95;;;;;;;0.79;100.00;99692.09;10297257;28;20418;-70
2024/01/05 00:06:59;;;;;;;14.95;8.55;;;;;;;0.77;100.00;99686.16;10296683;28;20039;-70
2024/01/05 00:12:00;;;;;;;27.85;8.73;;;;;;;0.81;100.00;99678.91;10297011;28;20042;-70
2024/01/05 00:17:01;;;;;;;17.05;9.15;;;;;;;0.94;100.00;99669.13;10297584;28;20042;-70
2024/01/05 00:22:01;;;;;;;15.00;8.32;;;;;;;0.71;100.00;99621.28;10296358;28;20046;-70
2024/01/05 00:27:03;;;;;;;16.73;8.75;;;;;;;0.71;100.00;99623.06;10295830;28;20038;-70
2024/01/05 00:32:04;;;;;;;16.70;8.90;;;;;;;1.12;100.00;99664.19;10295439;28;20042;-70
2024/01/05 00:37:05;;;;;;;15.13;7.97;;;;;;;1.02;100.00;99658.88;10295369;28;20125;-70
2024/01/05 00:42:06;;;;;;;15.95;8.73;;;;;;;0.95;100.00;99662.09;10295493;28;20066;-70
2024/01/05 00:47:07;;;;;;;11.88;7.82;;;;;;;0.76;100.00;99626.16;10294261;28;20055;-70
2024/01/05 00:52:08;;;;;;;18.42;9.70;;;;;;;0.96;100.00;99655.91;10295108;28;20054;-70
2024/01/05 00:57:09;;;;;;;24.95;11.95;;;;;;;0.94;100.00;99645.59;10293414;28;20073;-71
2024/01/05 01:02:10;;;;;;;24.42;12.02;;;;;;;0.64;100.00;99583.53;10294939;28;20041;-70
2024/01/05 01:07:11;;;;;;;19.27;11.32;;;;;;;1.16;100.00;99641.22;10294859;28;20514;-70
2024/01/05 01:12:12;;;;;;;24.27;11.30;;;;;;;1.26;100.00;99657.84;10293333;28;20396;-70
2024/01/05 01:17:13;;;;;;;26.13;11.13;;;;;;;1.25;100.00;99648.31;10293380;28;20384;-70
2024/01/05 01:22:13;;;;;;;27.73;11.40;;;;;;;1.33;100.00;99659.81;10293904;28;20402;-70
2024/01/05 01:27:15;;;;;;;28.20;12.45;;;;;;;1.20;100.00;99640.88;10294120;28;20102;-70
2024/01/05 01:32:16;;;;;;;19.73;10.23;;;;;;;1.24;100.00;99634.41;10293165;28;20042;-70
2024/01/05 01:37:17;;;;;;;17.40;9.63;;;;;;;1.17;100.00;99609.72;10293502;28;20407;-69
2024/01/05 01:42:18;;;;;;;16.05;9.55;;;;;;;1.34;100.00;99624.84;10293478;28;20109;-70
2024/01/05 01:47:20;;;;;;;19.65;9.35;;;;;;;1.40;100.00;99604.38;10293372;28;20129;-70
2024/01/05 01:52:21;;;;;;;19.77;9.02;;;;;;;1.15;100.00;99564.53;10291786;28;20498;-70
2024/01/05 01:57:22;;;;;;;27.88;10.45;;;;;;;1.15;100.00;99572.38;10292576;28;20046;-70
2024/01/05 02:02:23;;;;;;;23.25;10.18;;;;;;;1.28;100.00;99586.09;10284557;28;20062;-71
2024/01/05 02:07:24;;;;;;;22.85;9.93;;;;;;;1.51;100.00;99604.31;10252992;28;20043;-70
2024/01/05 02:12:25;;;;;;;22.25;9.70;;;;;;;1.57;100.00;99593.31;10255151;28;20043;-70
2024/01/05 02:17:27;;;;;;;19.13;9.52;;;;;;;1.61;100.00;99602.56;10291687;28;20043;-70
2024/01/05 02:22:30;;;;;;;17.98;9.55;;;;;;;1.31;100.00;99554.44;10292063;28;20058;-70
2024/01/05 02:27:31;;;;;;;15.98;8.60;;;;;;;1.59;100.00;99594.84;10291584;28;20618;-70
2024/01/05 02:32:31;;;;;;;31.40;14.40;;;;;;;1.27;100.00;99558.28;10289845;28;20138;-70
2024/01/05 02:37:32;;;;;;;48.10;27.98;;;;;;;1.37;100.00;99589.75;10291008;28;20054;-70
2024/01/05 02:42:34;;;;;;;51.63;35.40;;;;;;;1.18;100.00;99577.38;10291385;28;20054;-70
2024/01/05 02:47:35;;;;;;;53.55;29.77;;;;;;;0.96;100.00;99564.38;10291424;28;20414;-70
2024/01/05 02:52:35;;;;;;;30.80;16.15;;;;;;;0.76;100.00;99506.72;10290942;28;20038;-70
2024/01/05 02:57:37;;;;;;;26.80;12.98;;;;;;;1.32;100.00;99556.13;10291221;28;20035;-70
2024/01/05 03:02:38;;;;;;;30.52;14.85;;;;;;;1.56;100.00;99555.03;10291356;28;20080;-70
2024/01/05 03:07:40;;;;;;;25.95;15.45;;;;;;;1.71;100.00;99560.75;10299156;28;20074;-72
2024/01/05 03:12:41;;;;;;;26.95;13.30;;;;;;;1.77;100.00;99566.28;10299116;28;20050;-70
2024/01/05 03:17:42;;;;;;;23.25;10.20;;;;;;;1.72;100.00;99554.53;10297783;28;20051;-71
2024/01/05 03:22:43;;;;;;;25.30;10.52;;;;;;;1.79;100.00;99572.19;10298816;28;20058;-70
2024/01/05 03:27:44;;;;;;;26.80;10.82;;;;;;;1.59;100.00;99537.25;10298749;28;20047;-70
2024/01/05 03:32:45;;;;;;;20.70;9.18;;;;;;;1.75;100.00;99559.53;10298907;28;20145;-70
2024/01/05 03:37:46;;;;;;;20.92;9.15;;;;;;;1.85;100.00;99565.63;10297706;28;20491;-70
2024/01/05 03:42:47;;;;;;;19.45;8.70;;;;;;;1.88;100.00;99567.97;10297360;28;20054;-71
2024/01/05 03:47:48;;;;;;;19.02;10.00;;;;;;;1.59;100.00;99562.63;10297208;28;20046;-71
2024/01/05 03:52:48;;;;;;;17.92;10.70;;;;;;;1.54;100.00;99581.31;10297587;28;20077;-70
2024/01/05 03:57:49;;;;;;;31.15;12.32;;;;;;;1.36;100.00;99569.78;10296804;28;20188;-71
2024/01/05 04:02:50;;;;;;;35.60;12.10;;;;;;;0.90;100.00;99521.28;10296772;28;20070;-71
2024/01/05 04:07:51;;;;;;;20.17;9.75;;;;;;;1.14;100.00;99568.13;10296695;28;20049;-71
2024/01/05 04:12:51;;;;;;;25.80;9.85;;;;;;;1.20;100.00;99601.63;10295656;28;20042;-72
2024/01/05 04:17:52;;;;;;;30.50;10.98;;;;;;;1.19;100.00;99617.44;10296539;28;20049;-71
2024/01/05 04:22:53;;;;;;;26.02;10.57;;;;;;;0.94;100.00;99592.47;10296044;28;20047;-71
2024/01/05 04:27:54;;;;;;;21.88;10.10;;;;;;;0.88;100.00;99597.22;10295824;28;20045;-71
2024/01/05 04:32:55;;;;;;;29.85;9.57;;;;;;;0.52;100.00;99545.31;10295779;28;20384;-71
2024/01/05 04:37:56;;;;;;;19.80;8.63;;;;;;;0.68;100.00;99575.28;10295746;28;20043;-71
2024/01/05 04:42:57;;;;;;;18.98;9.18;;;;;;;0.68;100.00;99600.59;10271656;28;20059;-71
2024/01/05 04:47:58;;;;;;;33.30;10.65;;;;;;;0.09;100.00;99510.38;10259850;28;20495;-71
2024/01/05 04:52:58;;;;;;;22.10;9.55;;;;;;;0.68;100.00;99621.53;10255726;28;20538;-71
2024/01/05 04:57:59;;;;;;;22.80;10.70;;;;;;;0.49;100.00;99635.22;10255383;29;20075;-71
2024/01/05 05:03:00;;;;;;;24.80;10.85;;;;;;;0.57;100.00;99638.06;10254515;28;20074;-71
2024/01/05 05:08:01;;;;;;;22.92;11.52;;;;;;;0.65;100.00;99629.59;10273052;28;20121;-70
2024/01/05 05:13:03;;;;;;;28.40;13.32;;;;;;;0.71;100.00;99629.13;10294229;28;20038;-70
2024/01/05 05:18:04;;;;;;;25.23;12.82;;;;;;;0.65;100.00;99613.94;10286668;28;20046;-71
2024/01/05 05:23:05;;;;;;;32.00;13.13;;;;;;;0.42;100.00;99572.19;10293690;28;20145;-71
2024/01/05 05:28:05;;;;;;;41.97;13.68;;;;;;;0.87;100.00;99618.28;10294118;28;20070;-70
2024/01/05 05:33:06;;;;;;;28.67;13.13;;;;;;;0.89;100.00;99593.66;10293859;28;20054;-71
2024/01/05 05:38:07;;;;;;;37.17;12.07;;;;;;;1.20;100.00;99614.72;10293493;28;20045;-71
2024/01/05 05:43:08;;;;;;;52.33;25.25;;;;;;;1.47;100.00;99606.34;10292857;28;20070;-70
2024/01/05 05:48:12;;;;;;;25.92;16.00;;;;;;;1.73;100.00;99614.63;10293585;28;20043;-69
2024/01/05 05:53:13;;;;;;;37.08;13.85;;;;;;;1.96;100.00;99596.13;10293182;28;20046;-70
2024/01/05 05:58:13;;;;;;;33.55;11.60;;;;;;;2.10;100.00;99587.94;10293186;28;20042;-70
2024/01/05 06:03:14;;;;;;;33.25;11.95;;;;;;;2.39;100.00;99597.66;10291672;28;20101;-68
2024/01/05 06:08:15;;;;;;;42.88;13.05;;;;;;;2.69;100.00;99581.03;10277811;28;20504;-68
2024/01/05 06:13:16;;;;;;;17.70;10.57;;;;;;;3.13;100.00;99582.28;10279580;28;20038;-68
2024/01/05 06:18:17;;;;;;;22.30;11.25;;;;;;;3.60;100.00;99582.38;10284421;28;20158;-68
2024/01/05 06:23:18;;;;;;;24.08;10.52;;;;;;;3.94;99.41;99573.13;10274205;28;20047;-68
2024/01/05 06:28:20;;;;;;;11.65;7.22;;;;;;;4.26;98.42;99575.34;10259895;28;20041;-68
2024/01/05 06:33:21;;;;;;;13.95;6.78;;;;;;;4.63;97.53;99561.28;10275892;28;20046;-68
2024/01/05 06:38:22;;;;;;;10.95;6.95;;;;;;;4.89;96.32;99558.75;10252807;28;20043;-68
2024/01/05 06:43:23;;;;;;;15.70;7.05;;;;;;;5.24;94.57;99550.81;10278306;28;20518;-70
2024/01/05 06:48:24;;;;;;;17.45;7.25;;;;;;;5.44;93.16;99525.13;10288552;28;20035;-68
2024/01/05 06:53:24;;;;;;;20.27;9.05;;;;;;;5.88;92.11;99540.00;10271072;28;20504;-68
2024/01/05 06:58:27;;;;;;;16.17;8.02;;;;;;;6.18;91.63;99543.97;10290370;28;20498;-69
2024/01/05 07:03:28;;;;;;;19.23;8.90;;;;;;;6.52;90.73;99536.00;10259897;28;20058;-69
2024/01/05 07:08:31;;;;;;;15.95;7.95;;;;;;;6.70;89.96;99535.03;10281570;28;20042;-68
2024/01/05 07:13:32;;;;;;;18.90;12.15;;;;;;;6.55;89.33;99471.50;10255868;28;20059;-69
2024/01/05 07:18:33;;;;;;;19.23;5.40;;;;;;;7.02;88.45;99495.44;10272576;28;20050;-67
2024/01/05 07:23:36;;;;;;;8.82;3.33;;;;;;;6.97;87.56;99434.41;10290240;28;20042;-67
2024/01/05 07:28:37;;;;;;;15.60;6.13;;;;;;;7.32;87.66;99451.66;10287289;28;20459;-70
2024/01/05 07:33:39;;;;;;;18.23;9.30;;;;;;;7.76;87.29;99468.88;10289529;28;20098;-68
2024/01/05 07:38:40;;;;;;;12.10;6.90;;;;;;;8.12;87.54;99486.91;10290001;28;20042;-69
2024/01/05 07:43:41;;;;;;;12.30;4.20;;;;;;;8.23;87.09;99475.94;10276079;28;20539;-68
2024/01/05 07:48:42;;;;;;;12.52;3.42;;;;;;;8.44;86.56;99472.69;10269785;28;20515;-67
2024/01/05 07:53:43;;;;;;;7.30;3.20;;;;;;;8.22;85.74;99414.22;10277144;28;20043;-68
2024/01/05 07:58:45;;;;;;;5.18;3.03;;;;;;;8.71;85.05;99465.22;10282581;28;20042;-68
2024/01/05 08:03:47;;;;;;;9.20;3.50;;;;;;;8.92;84.27;99462.72;10277315;28;20078;-69
2024/01/05 08:08:52;;;;;;;14.75;3.38;;;;;;;8.74;83.75;99398.69;10275193;28;20038;-67
2024/01/05 08:13:53;;;;;;;14.32;6.47;;;;;;;9.09;82.85;99415.69;10275732;28;20043;-70
2024/01/05 08:18:54;;;;;;;13.70;8.20;;;;;;;9.01;82.79;99345.09;10274069;28;20533;-67
2024/01/05 08:23:55;;;;;;;10.32;4.00;;;;;;;9.56;82.39;99414.53;10275245;28;20058;-67
2024/01/05 08:28:55;;;;;;;9.55;2.97;;;;;;;9.51;82.16;99363.88;10256565;28;20050;-68
2024/01/05 08:33:56;;;;;;;9.68;3.30;;;;;;;9.99;81.68;99401.38;10256129;29;20039;-69
2024/01/05 08:38:57;;;;;;;7.85;2.63;;;;;;;10.05;81.85;99344.91;10255842;29;20050;-68
2024/01/05 08:43:58;;;;;;;5.88;2.17;;;;;;;10.57;80.97;99365.03;10255828;29;20098;-68
2024/01/05 08:48:59;;;;;;;7.20;2.80;;;;;;;10.91;80.88;99342.97;10255048;28;20051;-69
2024/01/05 08:54:03;;;;;;;8.43;2.33;;;;;;;10.71;80.41;99270.34;10272836;28;20408;-68
2024/01/05 08:59:07;;;;;;;6.70;2.67;;;;;;;10.88;80.79;99289.41;10276001;28;20045;-68
2024/01/05 09:04:10;;;;;;;6.70;2.45;;;;;;;10.86;81.23;99273.69;10273974;28;20133;-68
2024/01/05 09:09:11;;;;;;;5.47;2.33;;;;;;;11.19;80.64;99326.19;10278847;28;20074;-68
2024/01/05 09:14:11;;;;;;;5.05;2.30;;;;;;;11.01;81.22;99284.19;10274888;28;20199;-67
2024/01/05 09:19:13;;;;;;;6.68;2.20;;;;;;;11.39;81.16;99316.44;10273950;28;20498;-69
2024/01/05 09:24:14;;;;;;;7.05;2.33;;;;;;;11.41;80.33;99318.94;10271618;28;20035;-68
2024/01/05 09:29:15;;;;;;;5.78;2.10;;;;;;;11.39;81.16;99278.41;10268416;28;20049;-66
2024/01/05 09:34:17;;;;;;;5.47;1.90;;;;;;;11.57;80.73;99296.47;10289275;28;20101;-67
2024/01/05 09:39:18;;;;;;;11.80;2.45;;;;;;;11.67;81.29;99288.94;10292153;28;20046;-67
2024/01/05 09:44:21;;;;;;;6.25;1.90;;;;;;;11.80;80.87;99286.31;10292384;28;20472;-67
2024/01/05 09:49:22;;;;;;;7.68;2.05;;;;;;;11.37;81.22;99228.09;10291650;28;20055;-67
2024/01/05 09:54:23;;;;;;;5.45;2.03;;;;;;;11.65;80.83;99267.03;10286792;28;20106;-68
2024/01/05 09:59:26;;;;;;;7.03;3.47;;;;;;;11.76;80.51;99262.97;10253685;29;20427;-68
2024/01/05 10:04:28;;;;;;;16.67;11.48;;;;;;;11.76;80.24;99257.66;10274456;28;20049;-69
2024/01/05 10:09:30;;;;;;;16.30;5.45;;;;;;;11.35;80.11;99192.91;10291443;28;20526;-68
2024/01/05 10:14:31;;;;;;;7.40;2.38;;;;;;;11.65;80.45;99253.75;10292391;28;20061;-68
2024/01/05 10:19:32;;;;;;;4.68;2.25;;;;;;;11.68;80.06;99257.84;10291618;28;20447;-68
2024/01/05 10:24:33;;;;;;;6.43;2.47;;;;;;;11.48;80.27;99209.91;10290028;28;20133;-67
2024/01/05 10:29:38;;;;;;;7.80;2.08;;;;;;;11.82;80.08;99240.88;10292441;28;20122;-67
2024/01/05 10:34:41;;;;;;;5.00;2.20;;;;;;;11.96;79.80;99229.22;10291311;28;20047;-67
2024/01/05 10:39:53;;;;;;;6.45;2.10;;;;;;;12.08;79.71;99211.66;10289643;28;20483;-70
2024/01/05 10:44:57;;;;;;;15.98;2.20;;;;;;;12.23;79.89;99213.25;10291644;28;20043;-67
2024/01/05 10:50:00;;;;;;;7.28;2.40;;;;;;;12.26;79.36;99207.53;10288996;28;20054;-67
2024/01/05 10:55:03;;;;;;;4.82;2.08;;;;;;;12.19;79.59;99207.53;10289978;28;20086;-69
2024/01/05 11:00:05;;;;;;;9.13;2.23;;;;;;;11.57;79.29;99123.59;10291770;28;20050;-68
2024/01/05 11:05:10;;;;;;;10.30;2.88;;;;;;;11.63;79.40;99149.38;10289242;28;20317;-69
2024/01/05 11:10:17;;;;;;;4.82;2.30;;;;;;;11.91;79.95;99207.75;10289876;28;20077;-68
2024/01/05 11:15:47;;;;;;;12.82;2.75;;;;;;;11.86;80.92;99211.03;10284822;28;20058;-68
2024/01/05 11:21:02;;;;;;;4.78;2.00;;;;;;;11.76;80.68;99231.88;10288338;28;20081;-68
2024/01/05 11:26:03;;;;;;;5.32;2.63;;;;;;;11.68;81.23;99221.41;10286909;28;20050;-71
2024/01/05 11:31:05;;;;;;;9.40;3.30;;;;;;;11.65;82.04;99224.47;10277366;28;20046;-71
2024/01/05 11:36:06;;;;;;;8.55;3.53;;;;;;;11.54;82.70;99222.41;10287753;28;20058;-68
2024/01/05 11:41:19;;;;;;;6.35;2.80;;;;;;;11.45;84.20;99205.00;10287759;28;20057;-68
2024/01/05 11:46:42;;;;;;;8.73;4.53;;;;;;;11.40;84.57;99198.44;10293743;28;20054;-67
2024/01/05 11:51:43;;;;;;;9.43;3.47;;;;;;;11.24;84.69;99182.03;10269727;28;20613;-72
2024/01/05 11:56:43;;;;;;;9.32;2.70;;;;;;;11.29;84.29;99207.00;10275877;28;20047;-68
2024/01/05 12:01:51;;;;;;;5.43;1.77;;;;;;;11.22;84.72;99213.31;10274834;28;20114;-68
2024/01/05 12:06:52;;;;;;;4.90;1.90;;;;;;;11.11;85.27;99220.03;10279058;28;20126;-67
2024/01/05 12:11:53;;;;;;;4.78;2.10;;;;;;;10.80;85.60;99176.19;10273104;28;20060;-67
2024/01/05 12:17:12;;;;;;;5.50;2.30;;;;;;;11.06;86.53;99222.47;10277361;28;20414;-67
2024/01/05 12:22:13;;;;;;;9.82;2.60;;;;;;;11.02;86.18;99231.88;10275014;28;20055;-68
2024/01/05 12:27:14;;;;;;;6.03;2.30;;;;;;;10.91;86.76;99236.69;10266710;28;20047;-67
2024/01/05 12:32:15;;;;;;;9.82;3.05;;;;;;;10.66;87.09;99211.66;10279450;28;20059;-67
2024/01/05 12:37:17;;;;;;;35.97;4.18;;;;;;;10.68;87.64;99236.19;10274736;28;20046;-66
2024/01/05 12:42:18;;;;;;;33.92;3.55;;;;;;;10.61;88.34;99230.81;10278223;28;20066;-67
2024/01/05 12:47:28;;;;;;;11.10;3.40;;;;;;;10.45;89.59;99197.44;10275896;28;20050;-66
2024/01/05 12:52:37;;;;;;;10.45;4.05;;;;;;;10.47;89.74;99210.53;10277951;28;20030;-67
2024/01/05 12:57:38;;;;;;;16.42;5.13;;;;;;;10.26;88.95;99187.47;10276429;28;20047;-65
2024/01/05 13:02:38;;;;;;;16.35;5.45;;;;;;;10.13;89.53;99209.44;10277432;28;20561;-67
2024/01/05 13:07:39;;;;;;;12.52;4.60;;;;;;;10.00;90.26;99249.16;10279034;28;20050;-67
2024/01/05 13:12:41;;;;;;;49.92;8.25;;;;;;;9.80;91.20;99264.88;10280203;28;20062;-67
2024/01/05 13:17:47;;;;;;;37.30;22.70;;;;;;;9.27;92.36;99211.28;10280986;28;20061;-67
2024/01/05 13:22:48;;;;;;;27.27;14.02;;;;;;;9.55;92.29;99278.50;10275119;28;20407;-67
2024/01/05 13:27:49;;;;;;;61.90;30.27;;;;;;;9.37;92.66;99291.34;10285927;28;20778;-68
2024/01/05 13:32:50;;;;;;;97.40;58.70;;;;;;;9.04;93.55;99307.66;10292706;28;20125;-68
2024/01/05 13:37:51;;;;;;;62.17;43.13;;;;;;;8.38;93.96;99253.72;10293818;28;20133;-67
2024/01/05 13:42:52;;;;;;;33.10;17.27;;;;;;;8.95;94.45;99382.91;10292764;28;20081;-67
2024/01/05 13:47:53;;;;;;;15.98;8.60;;;;;;;8.86;94.72;99395.41;10292693;28;20081;-67
2024/01/05 13:52:54;;;;;;;11.32;5.80;;;;;;;8.97;95.05;99425.09;10293255;28;20039;-67
2024/01/05 13:57:55;;;;;;;19.83;7.50;;;;;;;8.95;95.26;99438.53;10293409;28;20054;-67
2024/01/05 14:02:56;;;;;;;24.02;9.32;;;;;;;8.91;95.26;99439.88;10291375;28;20049;-67
2024/01/05 14:07:56;;;;;;;13.82;5.57;;;;;;;8.85;95.96;99414.94;10293090;28;20046;-67
2024/01/05 14:12:57;;;;;;;13.38;8.82;;;;;;;8.84;96.50;99399.22;10279383;28;20037;-68
2024/01/05 14:17:58;;;;;;;22.85;9.95;;;;;;;8.24;96.53;99285.25;10292769;28;20126;-67
2024/01/05 14:23:00;;;;;;;25.70;18.48;;;;;;;8.84;96.93;99375.41;10291312;28;20053;-67
2024/01/05 14:28:01;;;;;;;12.40;7.28;;;;;;;8.40;97.26;99313.41;10291062;28;20058;-67
2024/01/05 14:33:02;;;;;;;13.55;7.95;;;;;;;8.73;97.50;99387.25;10289745;28;20089;-67
2024/01/05 14:38:02;;;;;;;11.82;5.93;;;;;;;8.64;97.81;99399.72;10290856;28;20133;-69
2024/01/05 14:43:03;;;;;;;10.68;5.47;;;;;;;8.55;98.34;99429.09;10291451;28;20148;-67
2024/01/05 14:48:05;;;;;;;19.92;6.80;;;;;;;8.28;98.99;99423.28;10291082;28;20051;-67
2024/01/05 14:53:05;;;;;;;17.13;8.07;;;;;;;8.06;99.64;99411.69;10291241;28;20045;-67
2024/01/05 14:58:06;;;;;;;39.40;22.02;;;;;;;8.12;99.80;99426.88;10291460;28;20039;-68
2024/01/05 15:03:07;;;;;;;27.33;12.98;;;;;;;8.01;99.89;99454.53;10299246;28;20039;-68
2024/01/05 15:08:08;;;;;;;20.98;9.07;;;;;;;7.82;100.00;99462.09;10297789;28;20039;-68
2024/01/05 15:13:10;;;;;;;16.13;7.22;;;;;;;7.69;100.00;99486.41;10298061;28;20129;-67
2024/01/05 15:18:10;;;;;;;15.68;6.03;;;;;;;7.45;100.00;99476.72;10299351;28;20043;-69
2024/01/05 15:23:11;;;;;;;8.27;4.95;;;;;;;7.39;100.00;99506.47;10296956;28;20049;-68
2024/01/05 15:28:12;;;;;;;8.13;4.70;;;;;;;7.35;100.00;99510.44;10296945;28;20125;-68
2024/01/05 15:33:13;;;;;;;9.45;4.70;;;;;;;7.39;100.00;99506.47;10297635;28;20047;-68
2024/01/05 15:38:14;;;;;;;13.50;4.35;;;;;;;7.37;100.00;99546.28;10298323;28;20034;-68
2024/01/05 15:43:15;;;;;;;8.48;4.78;;;;;;;7.27;100.00;99569.41;10296870;28;20066;-67
2024/01/05 15:48:19;;;;;;;5.93;4.13;;;;;;;7.26;100.00;99592.34;10297985;28;20047;-68
2024/01/05 15:53:19;;;;;;;9.02;5.03;;;;;;;7.40;100.00;99617.28;10279158;28;20046;-68
2024/01/05 15:58:20;;;;;;;8.02;4.57;;;;;;;7.17;100.00;99606.53;10261475;28;20047;-68
2024/01/05 16:03:22;;;;;;;13.10;4.43;;;;;;;7.59;100.00;99711.25;10257512;28;20051;-68
2024/01/05 16:08:23;;;;;;;6.22;3.83;;;;;;;7.61;100.00;99717.22;10276806;28;20041;-68
2024/01/05 16:13:24;;;;;;;6.20;3.50;;;;;;;7.58;100.00;99720.19;10291780;28;20051;-69
2024/01/05 16:18:25;;;;;;;9.23;3.60;;;;;;;7.69;100.00;99721.72;10287360;28;20459;-68
2024/01/05 16:23:26;;;;;;;5.78;3.63;;;;;;;7.84;100.00;99719.19;10295145;28;20105;-68
2024/01/05 16:28:27;;;;;;;5.90;3.20;;;;;;;7.98;100.00;99745.00;10291996;28;20043;-69
2024/01/05 16:33:29;;;;;;;9.63;3.03;;;;;;;7.66;100.00;99687.66;10270848;28;20040;-70
2024/01/05 16:38:30;;;;;;;13.30;7.10;;;;;;;7.97;100.00;99715.06;10288311;28;20053;-69
2024/01/05 16:43:31;;;;;;;11.05;7.63;;;;;;;8.15;100.00;99745.81;10284702;28;20089;-68
2024/01/05 16:48:32;;;;;;;12.23;6.18;;;;;;;8.11;100.00;99763.03;10273081;28;20063;-69
2024/01/05 16:53:33;;;;;;;10.10;6.75;;;;;;;8.00;100.00;99806.50;10264765;28;20043;-69
2024/01/05 16:58:33;;;;;;;5.63;4.03;;;;;;;8.00;100.00;99817.91;10293135;28;20526;-69
2024/01/05 17:03:34;;;;;;;6.45;3.50;;;;;;;7.78;100.00;99778.88;10294261;28;20565;-69
2024/01/05 17:08:35;;;;;;;5.20;2.70;;;;;;;8.09;100.00;99815.25;10294418;28;20053;-72
2024/01/05 17:13:36;;;;;;;4.63;2.17;;;;;;;8.24;100.00;99848.81;10283270;28;20513;-69
2024/01/05 17:18:38;;;;;;;3.63;2.03;;;;;;;8.15;100.00;99841.06;10274231;28;20503;-69
2024/01/05 17:23:40;;;;;;;3.35;1.40;;;;;;;8.05;100.00;99828.00;10272603;28;20100;-69
2024/01/05 17:28:41;;;;;;;2.25;1.00;;;;;;;8.26;100.00;99858.44;10281425;28;20137;-69
2024/01/05 17:33:43;;;;;;;2.50;0.85;;;;;;;8.16;100.00;99835.59;10271671;28;20035;-70
2024/01/05 17:38:44;;;;;;;1.88;0.70;;;;;;;8.31;100.00;99851.63;10276813;28;20079;-69
2024/01/05 17:43:45;;;;;;;1.75;0.50;;;;;;;8.01;100.00;99808.13;10279168;28;22015;-69
2024/01/05 17:48:46;;;;;;;1.10;0.50;;;;;;;8.33;100.00;99885.88;10277371;28;20039;-68
2024/01/05 17:53:47;;;;;;;0.98;0.50;;;;;;;8.19;100.00;99866.19;10288043;28;20129;-70
2024/01/05 17:58:48;;;;;;;2.15;0.50;;;;;;;8.26;100.00;99895.50;10292341;28;20105;-71
2024/01/05 18:03:49;;;;;;;1.73;0.50;;;;;;;8.23;100.00;99883.41;10291184;28;20047;-69
2024/01/05 18:08:50;;;;;;;3.75;0.80;;;;;;;8.36;100.00;99896.97;10292219;28;20043;-69
2024/01/05 18:13:54;;;;;;;1.55;0.70;;;;;;;8.38;100.00;99904.75;10293219;28;20050;-69
2024/01/05 18:18:58;;;;;;;;;;;;;;;8.51;100.00;99905.13;10289523;28;20141;-70
2024/01/05 18:24:03;;;;;;;2.35;0.95;;;;;;;8.44;100.00;99898.84;10292172;28;19925;-70
2024/01/05 18:29:07;;;;;;;2.38;1.30;;;;;;;7.74;100.00;99788.94;10291608;28;20504;-70
2024/01/05 18:34:08;;;;;;;4.07;1.75;;;;;;;8.27;100.00;99891.84;10290134;28;20524;-68
2024/01/05 18:39:09;;;;;;;3.00;1.65;;;;;;;8.08;100.00;99869.19;10291525;28;20121;-69
2024/01/05 18:44:14;;;;;;;2.75;1.38;;;;;;;8.38;100.00;99915.34;10290729;28;20058;-69
2024/01/05 18:49:15;;;;;;;3.65;1.80;;;;;;;8.34;100.00;99911.34;10291693;28;20146;-70
2024/01/05 18:54:16;;;;;;;3.28;1.85;;;;;;;8.43;100.00;99935.03;10289711;28;20154;-70
2024/01/05 18:59:17;;;;;;;4.18;2.30;;;;;;;8.42;100.00;99954.56;10291194;28;20167;-69
2024/01/05 19:04:19;;;;;;;2.60;1.80;;;;;;;8.47;100.00;99964.69;10291455;28;20054;-69
2024/01/05 19:09:19;;;;;;;3.00;2.03;;;;;;;8.34;100.00;99956.34;10291372;28;20065;-68
2024/01/05 19:14:23;;;;;;;3.85;2.15;;;;;;;8.39;100.00;99991.13;10291214;28;20529;-68
2024/01/05 19:19:24;;;;;;;3.17;1.90;;;;;;;8.18;100.00;99995.00;10291631;28;20038;-68
2024/01/05 19:24:25;;;;;;;2.42;1.55;;;;;;;8.14;100.00;100006.91;10290137;28;20054;-68
2024/01/05 19:29:26;;;;;;;3.00;1.55;;;;;;;8.05;100.00;100014.97;10289508;28;20047;-68
2024/01/05 19:34:27;;;;;;;2.08;1.10;;;;;;;7.39;100.00;99939.81;10290120;28;20050;-68
2024/01/05 19:39:28;;;;;;;2.47;1.20;;;;;;;7.83;100.00;100021.66;10289573;28;20052;-69
2024/01/05 19:44:28;;;;;;;2.67;1.25;;;;;;;7.70;100.00;100020.28;10280495;28;20411;-69
2024/01/05 19:49:29;;;;;;;1.85;1.10;;;;;;;7.52;100.00;100032.72;10297669;28;20058;-69
2024/01/05 19:54:30;;;;;;;2.20;1.35;;;;;;;7.39;100.00;100027.88;10298056;28;20039;-71
2024/01/05 19:59:31;;;;;;;3.75;1.33;;;;;;;7.01;100.00;99984.16;10296580;28;20043;-68
2024/01/05 20:04:33;;;;;;;2.45;1.33;;;;;;;6.98;100.00;99992.41;10297602;28;20045;-68
2024/01/05 20:09:34;;;;;;;2.67;1.35;;;;;;;7.28;100.00;100063.28;10297052;28;20117;-68
2024/01/05 20:14:36;;;;;;;2.30;1.10;;;;;;;7.33;100.00;100065.47;10297139;28;20070;-70
2024/01/05 20:19:37;;;;;;;2.42;1.00;;;;;;;7.24;100.00;100066.38;10297118;28;20566;-68
2024/01/05 20:24:38;;;;;;;2.65;1.02;;;;;;;6.95;100.00;100021.75;10296985;28;20376;-68
2024/01/05 20:29:38;;;;;;;2.50;1.10;;;;;;;7.12;100.00;100060.53;10295206;28;20043;-69
2024/01/05 20:34:39;;;;;;;1.98;1.10;;;;;;;6.81;99.76;100016.00;10297576;28;20093;-68
2024/01/05 20:39:40;;;;;;;1.90;1.10;;;;;;;7.07;99.44;100083.91;10295954;28;20051;-68
2024/01/05 20:44:42;;;;;;;2.20;1.10;;;;;;;6.98;99.04;100079.56;10295655;28;20049;-68
2024/01/05 20:49:43;;;;;;;1.80;1.00;;;;;;;6.90;98.67;100050.41;10295148;28;20093;-68
2024/01/05 20:54:44;;;;;;;2.47;1.10;;;;;;;6.86;98.12;100047.25;10295272;28;20037;-70
2024/01/05 20:59:45;;;;;;;2.00;1.08;;;;;;;6.83;98.25;100066.03;10294313;28;20070;-68
2024/01/05 21:04:47;;;;;;;3.15;1.00;;;;;;;6.86;98.19;100085.06;10295443;28;20372;-68
2024/01/05 21:09:48;;;;;;;2.38;1.00;;;;;;;6.57;97.26;100024.53;10295766;28;20051;-68
2024/01/05 21:14:48;;;;;;;1.98;1.08;;;;;;;6.58;96.35;100031.50;10294590;28;20042;-68
2024/01/05 21:19:49;;;;;;;1.85;0.82;;;;;;;6.83;95.81;100077.44;10293746;28;20093;-68
2024/01/05 21:24:51;;;;;;;1.27;0.73;;;;;;;6.83;95.05;100089.81;10293786;28;20046;-68
2024/01/05 21:29:52;;;;;;;3.78;0.88;;;;;;;6.92;94.43;100109.19;10294330;28;20034;-68
2024/01/05 21:34:56;;;;;;;2.33;1.05;;;;;;;6.77;93.50;100104.44;10293453;28;20073;-69
2024/01/05 21:39:58;;;;;;;1.98;0.90;;;;;;;6.89;93.40;100126.16;10293334;28;20066;-68
2024/01/05 21:44:59;;;;;;;2.28;1.08;;;;;;;6.78;92.24;100127.19;10293535;28;20046;-68
2024/01/05 21:49:59;;;;;;;1.70;0.95;;;;;;;6.81;92.69;100136.63;10292951;28;20546;-68
2024/01/05 21:55:00;;;;;;;2.15;1.00;;;;;;;6.67;92.49;100145.91;10293594;28;20043;-69
2024/01/05 22:00:01;;;;;;;3.00;1.73;;;;;;;6.65;92.32;100149.66;10293472;28;20043;-68
2024/01/05 22:05:04;;;;;;;2.53;0.90;;;;;;;6.26;91.99;100112.91;10292230;28;20085;-68
2024/01/05 22:10:06;;;;;;;1.95;0.95;;;;;;;6.42;91.32;100157.13;10291499;28;20043;-68
2024/01/05 22:15:07;;;;;;;1.48;0.90;;;;;;;5.92;91.24;100089.69;10293436;28;20050;-68
2024/01/05 22:20:09;;;;;;;1.73;0.82;;;;;;;6.45;91.85;100185.88;10292184;28;20046;-72
2024/01/05 22:25:10;;;;;;;2.00;0.90;;;;;;;6.42;91.85;100209.91;10292537;28;20066;-68
2024/01/05 22:30:11;;;;;;;9.10;1.75;;;;;;;6.44;91.95;100218.53;10284829;28;20042;-68
2024/01/05 22:35:12;;;;;;;2.30;1.30;;;;;;;6.36;92.62;100212.13;10291434;28;20502;-68
2024/01/05 22:40:12;;;;;;;2.05;1.13;;;;;;;6.38;92.68;100226.03;10290550;28;20054;-68
2024/01/05 22:45:13;;;;;;;2.05;1.25;;;;;;;6.32;93.39;100237.16;10251377;29;20055;-68
2024/01/05 22:50:14;;;;;;;2.40;1.50;;;;;;;6.31;93.84;100237.28;10251327;29;20131;-73
2024/01/05 22:55:15;;;;;;;3.03;1.67;;;;;;;6.25;94.49;100243.13;10251793;28;20507;-68
2024/01/05 23:00:19;;;;;;;2.47;1.48;;;;;;;6.21;95.00;100247.03;10251189;28;20129;-68
2024/01/05 23:05:19;;;;;;;2.25;1.30;;;;;;;6.05;96.12;100253.72;10251756;29;20047;-68
2024/01/05 23:10:20;;;;;;;2.20;1.30;;;;;;;6.01;96.38;100264.69;10251466;29;20094;-68
2024/01/05 23:15:22;;;;;;;2.28;1.30;;;;;;;6.13;97.00;100303.13;10249555;29;20039;-68